createdAt,value
2023-08-25T00:00:51.946Z,14.23
2023-08-25T00:01:53.766Z,17.60
2023-08-25T00:02:55.542Z,16.75
2023-08-25T00:03:57.371Z,21.50
2023-08-25T00:04:59.176Z,16.20
2023-08-25T00:06:00.766Z,18.20
2023-08-25T00:07:02.485Z,17.95
2023-08-25T00:08:04.225Z,18.17
2023-08-25T00:09:05.810Z,15.68
2023-08-25T00:10:07.757Z,17.05
2023-08-25T00:11:09.408Z,16.35
2023-08-25T00:12:11.012Z,16.48
2023-08-25T00:13:12.769Z,17.92
2023-08-25T00:14:14.468Z,17.43
2023-08-25T00:15:16.230Z,19.02
2023-08-25T00:16:17.927Z,18.77
2023-08-25T00:17:19.572Z,19.17
2023-08-25T00:18:21.223Z,21.33
2023-08-25T00:19:22.873Z,18.73
2023-08-25T00:20:24.545Z,21.42
2023-08-25T00:21:26.172Z,20.35
2023-08-25T00:22:28.419Z,33.13
2023-08-25T00:23:30.037Z,19.35
2023-08-25T00:24:32.300Z,22.07
2023-08-25T00:25:34.041Z,19.15
2023-08-25T00:26:36.760Z,19.60
2023-08-25T00:27:38.463Z,21.42
2023-08-25T00:28:40.136Z,20.98
2023-08-25T00:29:41.845Z,21.58
2023-08-25T00:30:43.467Z,23.83
2023-08-25T00:31:45.067Z,22.55
2023-08-25T00:32:46.642Z,23.33
2023-08-25T00:33:48.999Z,26.70
2023-08-25T00:34:50.620Z,23.27
2023-08-25T00:35:52.443Z,22.08
2023-08-25T00:36:54.118Z,22.23
2023-08-25T00:37:55.953Z,21.75
2023-08-25T00:38:57.912Z,20.02
2023-08-25T00:39:59.597Z,21.30
2023-08-25T00:41:01.179Z,21.13
2023-08-25T00:42:02.885Z,22.65
2023-08-25T00:43:04.656Z,19.67
2023-08-25T00:44:06.268Z,21.80
2023-08-25T00:45:07.940Z,19.33
2023-08-25T00:46:09.967Z,20.63
2023-08-25T00:47:11.702Z,22.60
2023-08-25T00:48:14.183Z,21.02
2023-08-25T00:49:16.043Z,19.98
2023-08-25T00:50:17.748Z,21.33
2023-08-25T00:51:19.620Z,23.55
2023-08-25T00:52:21.798Z,23.45
2023-08-25T00:53:23.723Z,21.95
2023-08-25T00:54:26.909Z,23.25
2023-08-25T00:55:28.679Z,22.90
2023-08-25T00:56:30.975Z,23.20
2023-08-25T00:57:32.656Z,22.40
2023-08-25T00:58:34.350Z,24.50
2023-08-25T00:59:36.569Z,22.15
2023-08-25T01:00:38.514Z,21.20
2023-08-25T01:01:40.264Z,18.48
2023-08-25T01:02:42.048Z,19.48
2023-08-25T01:03:44.187Z,21.83
2023-08-25T01:04:45.806Z,18.25
2023-08-25T01:05:47.661Z,18.90
2023-08-25T01:06:49.395Z,16.92
2023-08-25T01:07:51.394Z,19.25
2023-08-25T01:08:54.235Z,22.52
2023-08-25T01:09:56.149Z,20.80
2023-08-25T01:12:56.025Z,23.13
2023-08-25T01:14:02.828Z,21.42
2023-08-25T01:15:09.313Z,19.83
2023-08-25T01:16:13.802Z,19.23
2023-08-25T01:17:29.494Z,21.13
2023-08-25T01:18:33.014Z,20.35
2023-08-25T01:19:57.301Z,19.33
2023-08-25T01:20:59.752Z,19.70
2023-08-25T01:22:02.879Z,24.38
2023-08-25T01:23:12.910Z,21.77
2023-08-25T01:24:20.965Z,21.20
2023-08-25T01:25:22.690Z,22.23
2023-08-25T01:26:24.371Z,20.80
2023-08-25T01:27:26.446Z,19.50
2023-08-25T01:28:28.056Z,21.80
2023-08-25T01:29:29.693Z,20.65
2023-08-25T01:30:32.822Z,20.00
2023-08-25T01:31:34.639Z,18.67
2023-08-25T01:32:36.250Z,18.40
2023-08-25T01:33:38.345Z,18.35
2023-08-25T01:34:40.040Z,19.75
2023-08-25T01:35:47.656Z,20.20
2023-08-25T01:37:12.608Z,21.60
2023-08-25T01:38:20.277Z,20.20
2023-08-25T01:39:22.964Z,19.70
2023-08-25T01:40:41.910Z,18.20
2023-08-25T01:41:47.504Z,18.05
2023-08-25T01:42:50.738Z,19.58
2023-08-25T01:43:53.325Z,18.48
2023-08-25T01:44:55.231Z,17.63
2023-08-25T01:45:58.155Z,18.50
2023-08-25T01:47:02.000Z,19.15
2023-08-25T01:48:07.031Z,22.40
2023-08-25T01:49:10.412Z,20.95
2023-08-25T01:50:12.425Z,20.70
2023-08-25T01:51:14.861Z,17.92
2023-08-25T01:52:16.889Z,18.58
2023-08-25T01:53:18.543Z,21.38
2023-08-25T01:54:20.175Z,19.98
2023-08-25T01:55:21.856Z,21.30
2023-08-25T01:56:23.626Z,20.73
2023-08-25T01:57:25.160Z,18.92
2023-08-25T01:58:26.716Z,19.85
2023-08-25T01:59:28.261Z,19.15
2023-08-25T02:03:19.279Z,18.65
2023-08-25T02:04:20.869Z,17.95
2023-08-25T02:05:22.921Z,20.35
2023-08-25T02:06:24.728Z,22.02
2023-08-25T02:07:26.261Z,21.05
2023-08-25T02:08:27.888Z,20.95
2023-08-25T02:09:29.531Z,19.02
2023-08-25T02:10:31.046Z,19.70
2023-08-25T02:11:32.584Z,17.57
2023-08-25T02:12:34.136Z,17.88
2023-08-25T02:13:35.647Z,20.00
2023-08-25T02:14:37.276Z,18.38
2023-08-25T02:15:38.796Z,19.23
2023-08-25T02:16:40.340Z,18.65
2023-08-25T02:17:41.939Z,22.50
2023-08-25T02:18:43.658Z,18.42
2023-08-25T02:19:45.253Z,18.17
2023-08-25T02:20:46.847Z,16.45
2023-08-25T02:21:48.406Z,19.00
2023-08-25T02:22:49.980Z,19.45
2023-08-25T02:23:51.577Z,18.13
2023-08-25T02:24:53.148Z,18.15
2023-08-25T02:25:54.727Z,18.15
2023-08-25T02:26:56.266Z,18.15
2023-08-25T02:27:57.848Z,19.40
2023-08-25T02:28:59.435Z,19.92
2023-08-25T02:30:01.061Z,19.10
2023-08-25T02:31:02.639Z,22.60
2023-08-25T02:32:04.378Z,18.93
2023-08-25T02:33:05.964Z,19.13
2023-08-25T02:34:07.492Z,16.60
2023-08-25T02:35:09.191Z,19.30
2023-08-25T02:36:10.707Z,17.67
2023-08-25T02:37:12.411Z,19.90
2023-08-25T02:38:13.967Z,19.70
2023-08-25T02:39:15.497Z,20.13
2023-08-25T02:40:17.128Z,21.08
2023-08-25T02:41:18.651Z,19.35
2023-08-25T02:42:20.228Z,18.80
2023-08-25T02:43:21.764Z,20.58
2023-08-25T02:44:23.262Z,18.25
2023-08-25T02:45:25.110Z,18.38
2023-08-25T02:46:26.665Z,20.10
2023-08-25T02:47:28.284Z,20.13
2023-08-25T02:48:29.867Z,19.77
2023-08-25T02:49:31.406Z,18.33
2023-08-25T02:50:34.408Z,20.15
2023-08-25T02:51:35.931Z,18.50
2023-08-25T02:52:37.502Z,19.73
2023-08-25T02:53:39.086Z,20.67
2023-08-25T02:54:40.637Z,17.45
2023-08-25T02:55:42.206Z,21.45
2023-08-25T02:56:43.789Z,19.23
2023-08-25T02:57:45.289Z,17.98
2023-08-25T02:58:46.804Z,20.83
2023-08-25T02:59:48.366Z,17.27
2023-08-25T03:00:49.895Z,16.33
2023-08-25T03:01:51.540Z,17.05
2023-08-25T03:02:53.785Z,17.83
2023-08-25T03:03:56.864Z,17.58
2023-08-25T03:04:58.505Z,19.42
2023-08-25T03:06:00.219Z,22.42
2023-08-25T03:07:01.806Z,18.50
2023-08-25T03:08:03.474Z,18.75
2023-08-25T03:09:05.032Z,18.25
2023-08-25T03:10:07.003Z,17.67
2023-08-25T03:11:08.722Z,16.38
2023-08-25T03:12:10.276Z,18.52
2023-08-25T03:13:12.869Z,18.37
2023-08-25T03:14:14.580Z,15.52
2023-08-25T03:15:16.150Z,19.10
2023-08-25T03:16:17.893Z,18.02
2023-08-25T03:17:19.416Z,18.95
2023-08-25T03:18:21.661Z,16.38
2023-08-25T03:19:23.289Z,15.30
2023-08-25T03:20:24.806Z,17.52
2023-08-25T03:21:26.298Z,18.05
2023-08-25T03:22:27.828Z,18.13
2023-08-25T03:23:29.454Z,17.23
2023-08-25T03:24:30.982Z,16.95
2023-08-25T03:25:32.535Z,17.23
2023-08-25T03:26:34.039Z,19.42
2023-08-25T03:27:35.677Z,15.73
2023-08-25T03:28:37.348Z,16.58
2023-08-25T03:29:38.894Z,16.20
2023-08-25T03:30:40.405Z,18.00
2023-08-25T03:31:41.972Z,16.55
2023-08-25T03:32:43.610Z,16.15
2023-08-25T03:33:45.251Z,15.80
2023-08-25T03:34:46.769Z,17.25
2023-08-25T03:35:48.273Z,16.45
2023-08-25T03:36:49.896Z,17.33
2023-08-25T03:37:51.804Z,16.15
2023-08-25T03:38:53.581Z,16.77
2023-08-25T03:39:55.160Z,16.27
2023-08-25T03:41:00.038Z,18.13
2023-08-25T03:42:01.580Z,15.77
2023-08-25T03:43:03.171Z,17.30
2023-08-25T03:44:04.822Z,18.10
2023-08-25T03:45:06.849Z,17.95
2023-08-25T03:46:08.415Z,17.10
2023-08-25T03:47:09.961Z,17.15
2023-08-25T03:48:11.545Z,18.27
2023-08-25T03:49:13.542Z,17.60
2023-08-25T03:50:15.245Z,16.77
2023-08-25T03:51:16.802Z,16.88
2023-08-25T03:52:18.377Z,17.38
2023-08-25T03:53:19.944Z,16.75
2023-08-25T03:54:21.551Z,15.67
2023-08-25T03:55:24.721Z,17.90
2023-08-25T03:56:26.566Z,17.98
2023-08-25T03:57:28.088Z,15.63
2023-08-25T03:58:29.633Z,17.20
2023-08-25T03:59:31.166Z,19.77
2023-08-25T04:00:32.709Z,14.80
2023-08-25T04:01:34.493Z,16.35
2023-08-25T04:02:36.211Z,16.70
2023-08-25T04:03:37.756Z,15.10
2023-08-25T04:04:39.379Z,17.07
2023-08-25T04:05:40.993Z,17.08
2023-08-25T04:06:43.029Z,18.02
2023-08-25T04:07:44.616Z,15.38
2023-08-25T04:08:46.164Z,13.90
2023-08-25T04:09:47.868Z,14.52
2023-08-25T04:10:49.464Z,17.98
2023-08-25T04:11:50.995Z,17.08
2023-08-25T04:12:52.595Z,15.80
2023-08-25T04:13:54.141Z,15.10
2023-08-25T04:14:55.718Z,13.93
2023-08-25T04:15:57.915Z,17.67
2023-08-25T04:16:59.570Z,16.95
2023-08-25T04:18:01.172Z,15.68
2023-08-25T04:19:03.362Z,16.25
2023-08-25T04:20:05.292Z,14.45
2023-08-25T04:21:06.867Z,18.58
2023-08-25T04:22:08.480Z,16.42
2023-08-25T04:23:10.041Z,19.52
2023-08-25T04:24:11.613Z,15.70
2023-08-25T04:25:13.106Z,14.73
2023-08-25T04:26:14.627Z,17.23
2023-08-25T04:27:16.985Z,16.77
2023-08-25T04:28:19.263Z,19.23
2023-08-25T04:29:20.843Z,16.80
2023-08-25T04:30:22.411Z,16.00
2023-08-25T04:31:24.035Z,18.42
2023-08-25T04:32:25.628Z,16.65
2023-08-25T04:33:27.252Z,17.98
2023-08-25T04:34:28.761Z,16.73
2023-08-25T04:35:30.288Z,17.10
2023-08-25T04:36:31.939Z,17.10
2023-08-25T04:37:33.454Z,16.35
2023-08-25T04:38:35.014Z,16.50
2023-08-25T04:39:36.526Z,16.30
2023-08-25T04:40:38.093Z,19.60
2023-08-25T04:41:39.582Z,18.60
2023-08-25T04:42:41.567Z,16.50
2023-08-25T04:43:43.147Z,16.98
2023-08-25T04:44:44.716Z,16.70
2023-08-25T04:45:46.362Z,19.60
2023-08-25T04:46:47.911Z,17.80
2023-08-25T04:47:49.597Z,16.63
2023-08-25T04:48:51.194Z,16.48
2023-08-25T04:49:52.712Z,17.33
2023-08-25T04:50:54.280Z,18.13
2023-08-25T04:51:55.953Z,16.50
2023-08-25T04:52:57.505Z,18.77
2023-08-25T04:53:59.070Z,19.30
2023-08-25T04:55:00.700Z,20.17
2023-08-25T04:56:02.267Z,20.43
2023-08-25T04:57:03.848Z,18.75
2023-08-25T04:58:05.394Z,22.90
2023-08-25T04:59:06.949Z,21.70
2023-08-25T05:00:08.938Z,18.98
2023-08-25T05:01:10.540Z,21.10
2023-08-25T05:02:12.244Z,23.17
2023-08-25T05:03:14.038Z,23.50
2023-08-25T05:04:15.696Z,21.33
2023-08-25T05:05:17.272Z,21.20
2023-08-25T05:06:18.757Z,23.53
2023-08-25T05:07:20.366Z,22.33
2023-08-25T05:08:22.036Z,22.67
2023-08-25T05:09:23.593Z,25.05
2023-08-25T05:10:25.138Z,25.20
2023-08-25T05:11:26.665Z,28.92
2023-08-25T05:12:28.181Z,25.98
2023-08-25T05:13:29.896Z,25.40
2023-08-25T05:14:31.409Z,23.45
2023-08-25T05:15:33.287Z,24.30
2023-08-25T05:16:34.877Z,24.23
2023-08-25T05:17:36.513Z,22.30
2023-08-25T05:18:38.098Z,23.70
2023-08-25T05:19:39.636Z,24.75
2023-08-25T05:20:41.204Z,24.90
2023-08-25T05:21:42.754Z,24.52
2023-08-25T05:22:44.313Z,23.35
2023-08-25T05:23:46.020Z,26.35
2023-08-25T05:24:47.568Z,26.40
2023-08-25T05:25:49.106Z,25.10
2023-08-25T05:26:51.019Z,27.60
2023-08-25T05:27:52.815Z,22.88
2023-08-25T05:28:54.641Z,25.67
2023-08-25T05:29:56.224Z,26.13
2023-08-25T05:30:57.757Z,26.25
2023-08-25T05:31:59.261Z,25.10
2023-08-25T05:33:00.810Z,24.65
2023-08-25T05:34:02.354Z,23.85
2023-08-25T05:35:04.090Z,24.02
2023-08-25T05:36:05.771Z,24.80
2023-08-25T05:37:07.338Z,23.33
2023-08-25T05:38:09.436Z,22.02
2023-08-25T05:39:11.019Z,24.20
2023-08-25T05:40:13.242Z,26.33
2023-08-25T05:41:14.891Z,27.27
2023-08-25T05:42:17.039Z,24.67
2023-08-25T05:43:18.593Z,24.02
2023-08-25T05:44:20.112Z,24.83
2023-08-25T05:45:21.682Z,25.85
2023-08-25T05:46:23.308Z,24.42
2023-08-25T05:47:24.891Z,26.10
2023-08-25T05:48:26.397Z,28.23
2023-08-25T05:49:27.966Z,26.00
2023-08-25T05:50:29.515Z,23.40
2023-08-25T05:51:31.059Z,23.67
2023-08-25T05:52:32.647Z,21.63
2023-08-25T05:53:34.256Z,23.98
2023-08-25T05:54:35.781Z,25.75
2023-08-25T05:55:37.310Z,24.17
2023-08-25T05:56:38.851Z,26.02
2023-08-25T05:57:40.842Z,25.60
2023-08-25T05:58:42.710Z,22.30
2023-08-25T05:59:44.480Z,22.20
2023-08-25T06:00:46.096Z,23.88
2023-08-25T06:01:47.717Z,25.67
2023-08-25T06:02:49.351Z,22.13
2023-08-25T06:03:50.907Z,28.60
2023-08-25T06:04:52.489Z,26.70
2023-08-25T06:05:53.983Z,23.45
2023-08-25T06:06:55.571Z,22.20
2023-08-25T06:07:57.044Z,21.97
2023-08-25T06:08:58.630Z,22.83
2023-08-25T06:10:00.284Z,22.00
2023-08-25T06:11:01.897Z,23.80
2023-08-25T06:12:03.472Z,22.85
2023-08-25T06:13:04.988Z,24.92
2023-08-25T06:14:06.526Z,23.23
2023-08-25T06:15:08.329Z,23.10
2023-08-25T06:16:10.062Z,21.25
2023-08-25T06:17:11.762Z,22.48
2023-08-25T06:18:13.613Z,22.07
2023-08-25T06:19:15.179Z,20.48
2023-08-25T06:20:16.722Z,27.42
2023-08-25T06:21:18.231Z,26.13
2023-08-25T06:22:19.720Z,23.35
2023-08-25T06:23:21.609Z,20.58
2023-08-25T06:24:23.172Z,22.58
2023-08-25T06:25:24.799Z,23.17
2023-08-25T06:26:26.372Z,21.05
2023-08-25T06:27:27.878Z,26.52
2023-08-25T06:28:29.460Z,18.63
2023-08-25T06:29:31.089Z,20.60
2023-08-25T06:30:32.795Z,20.27
2023-08-25T06:31:34.449Z,22.73
2023-08-25T06:32:36.066Z,20.83
2023-08-25T06:33:37.585Z,20.38
2023-08-25T06:34:39.150Z,20.98
2023-08-25T06:35:40.801Z,19.98
2023-08-25T06:36:43.076Z,22.63
2023-08-25T06:37:44.705Z,21.10
2023-08-25T06:38:56.370Z,20.17
2023-08-25T06:39:58.694Z,23.70
2023-08-25T06:41:00.264Z,21.13
2023-08-25T06:42:01.785Z,21.77
2023-08-25T06:43:03.837Z,18.98
2023-08-25T06:44:05.349Z,23.42
2023-08-25T06:45:07.288Z,21.33
2023-08-25T06:46:08.838Z,19.80
2023-08-25T06:47:10.452Z,22.13
2023-08-25T06:48:12.037Z,19.38
2023-08-25T06:49:13.617Z,19.37
2023-08-25T06:50:15.223Z,19.83
2023-08-25T06:51:16.956Z,21.02
2023-08-25T06:52:18.549Z,21.83
2023-08-25T06:53:20.140Z,22.10
2023-08-25T06:54:21.684Z,22.13
2023-08-25T06:55:23.838Z,20.25
2023-08-25T06:56:25.344Z,19.23
2023-08-25T06:57:26.889Z,22.30
2023-08-25T06:58:28.404Z,25.90
2023-08-25T06:59:30.050Z,20.63
2023-08-25T07:00:31.593Z,19.23
2023-08-25T07:01:33.299Z,21.17
2023-08-25T07:02:34.937Z,19.45
2023-08-25T07:03:36.522Z,20.08
2023-08-25T07:04:38.129Z,20.92
2023-08-25T07:05:39.686Z,21.80
2023-08-25T07:06:41.296Z,17.65
2023-08-25T07:07:42.910Z,22.70
2023-08-25T07:08:44.434Z,24.55
2023-08-25T07:09:45.978Z,23.13
2023-08-25T07:10:47.771Z,22.83
2023-08-25T07:11:49.296Z,20.15
2023-08-25T07:12:50.872Z,18.75
2023-08-25T07:13:52.471Z,21.02
2023-08-25T07:14:54.119Z,19.85
2023-08-25T07:15:55.691Z,21.15
2023-08-25T07:16:57.235Z,17.75
2023-08-25T07:17:58.989Z,19.48
2023-08-25T07:19:01.141Z,20.80
2023-08-25T07:20:02.830Z,20.00
2023-08-25T07:21:04.958Z,20.77
2023-08-25T07:22:06.573Z,20.05
2023-08-25T07:23:08.257Z,18.38
2023-08-25T07:24:09.833Z,18.98
2023-08-25T07:25:11.397Z,17.02
2023-08-25T07:26:12.936Z,20.25
2023-08-25T07:27:14.528Z,20.05
2023-08-25T07:28:16.097Z,18.40
2023-08-25T07:29:17.718Z,15.95
2023-08-25T07:30:19.276Z,17.60
2023-08-25T07:31:20.988Z,14.85
2023-08-25T07:32:23.777Z,17.23
2023-08-25T07:33:27.243Z,18.48
2023-08-25T07:34:28.926Z,15.80
2023-08-25T07:35:33.340Z,19.75
2023-08-25T07:36:34.786Z,19.65
2023-08-25T07:37:36.301Z,22.58
2023-08-25T07:38:37.903Z,17.33
2023-08-25T07:39:42.444Z,16.92
2023-08-25T07:40:44.049Z,16.93
2023-08-25T07:41:45.596Z,19.13
2023-08-25T07:42:47.189Z,21.60
2023-08-25T07:43:48.933Z,18.67
2023-08-25T07:44:50.442Z,18.67
2023-08-25T07:45:53.717Z,20.23
2023-08-25T07:46:55.395Z,20.52
2023-08-25T07:47:57.550Z,17.67
2023-08-25T07:48:59.120Z,18.48
2023-08-25T07:50:00.752Z,21.08
2023-08-25T07:51:02.439Z,19.13
2023-08-25T07:52:04.064Z,16.42
2023-08-25T07:53:05.764Z,15.05
2023-08-25T07:54:07.459Z,19.55
2023-08-25T07:55:09.030Z,17.35
2023-08-25T07:56:10.581Z,19.83
2023-08-25T07:57:12.151Z,16.92
2023-08-25T07:58:14.262Z,16.30
2023-08-25T07:59:15.875Z,17.98
2023-08-25T08:00:17.751Z,17.65
2023-08-25T08:01:20.800Z,16.97
2023-08-25T08:02:22.669Z,18.48
2023-08-25T08:03:24.512Z,19.77
2023-08-25T08:04:26.162Z,15.60
2023-08-25T08:05:27.745Z,15.32
2023-08-25T08:06:29.322Z,16.10
2023-08-25T08:07:30.881Z,14.30
2023-08-25T08:08:32.401Z,15.38
2023-08-25T08:09:34.102Z,17.45
2023-08-25T08:10:35.646Z,14.10
2023-08-25T08:11:37.243Z,13.30
2023-08-25T08:12:39.196Z,12.85
2023-08-25T08:13:40.675Z,11.98
2023-08-25T08:14:46.464Z,13.90
2023-08-25T08:15:48.493Z,13.95
2023-08-25T08:16:49.998Z,11.95
2023-08-25T08:17:51.791Z,13.40
2023-08-25T08:18:53.715Z,10.73
2023-08-25T08:19:55.344Z,14.70
2023-08-25T08:20:57.000Z,12.00
2023-08-25T08:21:58.755Z,12.30
2023-08-25T08:23:00.314Z,12.43
2023-08-25T08:24:02.291Z,14.02
2023-08-25T08:25:04.011Z,12.48
2023-08-25T08:26:05.558Z,16.77
2023-08-25T08:27:07.151Z,11.43
2023-08-25T08:28:08.722Z,13.27
2023-08-25T08:29:10.243Z,11.55
2023-08-25T08:30:12.576Z,11.45
2023-08-25T08:31:14.331Z,14.00
2023-08-25T08:32:16.162Z,11.53
2023-08-25T08:33:17.627Z,10.38
2023-08-25T08:34:19.212Z,12.02
2023-08-25T08:35:20.764Z,10.35
2023-08-25T08:36:22.526Z,10.98
2023-08-25T08:37:24.334Z,10.57
2023-08-25T08:38:25.896Z,11.90
2023-08-25T08:39:27.425Z,11.55
2023-08-25T08:40:29.164Z,10.10
2023-08-25T08:41:31.006Z,10.90
2023-08-25T08:42:36.432Z,9.43
2023-08-25T08:43:41.001Z,9.48
2023-08-25T08:44:46.371Z,10.80
2023-08-25T08:45:48.925Z,11.63
2023-08-25T08:46:50.556Z,13.80
2023-08-25T08:47:53.112Z,9.25
2023-08-25T08:48:55.388Z,12.27
2023-08-25T08:49:58.028Z,9.82
2023-08-25T08:51:00.575Z,11.93
2023-08-25T08:52:02.408Z,10.95
2023-08-25T08:53:04.138Z,10.77
2023-08-25T08:54:06.277Z,10.65
2023-08-25T08:55:08.056Z,10.95
2023-08-25T08:56:10.086Z,10.07
2023-08-25T08:57:11.798Z,10.38
2023-08-25T08:58:13.294Z,9.85
2023-08-25T08:59:14.979Z,10.23
2023-08-25T09:00:17.758Z,9.98
2023-08-25T09:01:19.454Z,10.35
2023-08-25T09:02:21.074Z,10.20
2023-08-25T09:03:23.657Z,12.33
2023-08-25T09:04:25.363Z,9.48
2023-08-25T09:05:27.719Z,9.25
2023-08-25T09:06:35.172Z,9.93
2023-08-25T09:07:37.441Z,9.48
2023-08-25T09:08:39.398Z,9.05
2023-08-25T09:09:40.978Z,11.45
2023-08-25T09:10:42.628Z,10.40
2023-08-25T09:11:44.828Z,12.48
2023-08-25T09:12:46.467Z,13.52
2023-08-25T09:13:55.472Z,11.30
2023-08-25T09:14:57.140Z,13.18
2023-08-25T09:15:59.176Z,9.07
2023-08-25T09:17:04.694Z,16.67
2023-08-25T09:18:07.272Z,9.68
2023-08-25T09:19:08.846Z,9.93
2023-08-25T09:20:10.566Z,11.90
2023-08-25T09:21:18.645Z,9.07
2023-08-25T09:22:20.738Z,9.65
2023-08-25T09:23:22.742Z,10.10
2023-08-25T09:24:24.590Z,9.87
2023-08-25T09:25:26.143Z,8.95
2023-08-25T09:26:29.458Z,11.40
2023-08-25T09:27:31.033Z,9.07
2023-08-25T09:28:36.788Z,9.52
2023-08-25T09:29:41.858Z,10.35
2023-08-25T09:30:43.907Z,9.45
2023-08-25T09:31:45.757Z,10.73
2023-08-25T09:32:48.564Z,9.45
2023-08-25T09:33:52.697Z,10.95
2023-08-25T09:34:54.145Z,9.93
2023-08-25T09:35:55.709Z,9.57
2023-08-25T09:36:57.467Z,8.80
2023-08-25T09:37:59.162Z,9.02
2023-08-25T09:39:06.226Z,11.35
2023-08-25T09:40:16.167Z,8.45
2023-08-25T09:41:27.399Z,11.13
2023-08-25T09:42:29.513Z,10.10
2023-08-25T09:43:31.111Z,9.18
2023-08-25T09:44:33.727Z,9.25
2023-08-25T09:45:35.298Z,9.97
2023-08-25T09:46:36.917Z,11.25
2023-08-25T09:47:38.486Z,9.65
2023-08-25T09:48:40.063Z,11.05
2023-08-25T09:49:43.516Z,8.70
2023-08-25T09:50:45.513Z,9.52
2023-08-25T09:51:47.326Z,10.25
2023-08-25T09:52:48.932Z,8.52
2023-08-25T09:53:50.632Z,9.85
2023-08-25T09:54:52.215Z,9.23
2023-08-25T09:55:58.250Z,8.80
2023-08-25T09:57:00.484Z,11.15
2023-08-25T09:58:02.525Z,9.68
2023-08-25T09:59:04.567Z,11.10
2023-08-25T10:00:06.854Z,8.52
2023-08-25T10:01:08.900Z,7.72
2023-08-25T10:02:11.526Z,8.52
2023-08-25T10:03:13.383Z,10.15
2023-08-25T10:04:15.086Z,10.35
2023-08-25T10:05:16.907Z,10.30
2023-08-25T10:06:18.495Z,10.90
2023-08-25T10:07:21.779Z,8.15
2023-08-25T10:08:23.566Z,8.77
2023-08-25T10:09:25.440Z,8.55
2023-08-25T10:10:27.935Z,8.88
2023-08-25T10:11:30.638Z,10.98
2023-08-25T10:12:33.112Z,9.70
2023-08-25T10:13:36.460Z,9.73
2023-08-25T10:14:41.715Z,8.52
2023-08-25T10:15:44.149Z,9.38
2023-08-25T10:16:50.515Z,7.33
2023-08-25T10:17:53.894Z,7.93
2023-08-25T10:18:56.984Z,9.73
2023-08-25T10:20:01.233Z,7.97
2023-08-25T10:21:03.187Z,8.20
2023-08-25T10:22:05.417Z,10.05
2023-08-25T10:23:07.075Z,8.63
2023-08-25T10:24:09.465Z,8.57
2023-08-25T10:25:13.060Z,9.80
2023-08-25T10:26:14.966Z,7.50
2023-08-25T10:27:16.730Z,9.13
2023-08-25T10:28:18.485Z,8.77
2023-08-25T10:29:21.321Z,8.82
2023-08-25T10:30:23.216Z,12.13
2023-08-25T10:31:24.874Z,9.18
2023-08-25T10:32:46.555Z,9.02
2023-08-25T10:33:48.111Z,8.68
2023-08-25T10:34:52.717Z,12.15
2023-08-25T10:35:54.983Z,9.63
2023-08-25T10:37:26.049Z,9.07
2023-08-25T10:38:27.897Z,10.07
2023-08-25T10:39:45.740Z,9.35
2023-08-25T10:40:50.006Z,10.10
2023-08-25T10:41:57.473Z,11.60
2023-08-25T10:42:59.252Z,7.90
2023-08-25T10:44:00.865Z,10.77
2023-08-25T10:45:04.523Z,9.88
2023-08-25T10:46:09.322Z,9.13
2023-08-25T10:47:11.434Z,11.23
2023-08-25T10:48:20.511Z,11.30
2023-08-25T10:49:28.540Z,10.60
2023-08-25T10:50:30.134Z,10.32
2023-08-25T10:51:32.989Z,7.97
2023-08-25T10:52:34.641Z,9.85
2023-08-25T10:53:42.960Z,11.00
2023-08-25T10:54:47.563Z,10.63
2023-08-25T10:55:49.059Z,12.90
2023-08-25T10:56:50.621Z,10.32
2023-08-25T10:57:52.967Z,9.25
2023-08-25T10:59:04.707Z,11.05
2023-08-25T11:00:25.420Z,11.23
2023-08-25T11:01:27.754Z,10.55
2023-08-25T11:02:35.821Z,9.50
2023-08-25T11:04:03.595Z,10.45
2023-08-25T11:05:24.669Z,12.20
2023-08-25T11:06:38.882Z,11.55
2023-08-25T11:07:43.654Z,10.27
2023-08-25T11:08:45.391Z,10.68
2023-08-25T11:09:47.046Z,8.80
2023-08-25T11:10:48.586Z,9.45
2023-08-25T11:11:56.506Z,10.03
2023-08-25T11:13:09.688Z,10.02
2023-08-25T11:14:13.975Z,10.57
2023-08-25T11:15:15.589Z,9.13
2023-08-25T11:16:17.233Z,10.18
2023-08-25T11:17:19.429Z,13.60
2023-08-25T11:18:20.992Z,9.30
2023-08-25T11:19:22.672Z,9.82
2023-08-25T11:20:24.190Z,9.10
2023-08-25T11:21:26.848Z,9.77
2023-08-25T11:22:28.545Z,8.17
2023-08-25T11:23:43.861Z,9.02
2023-08-25T11:24:45.515Z,10.43
2023-08-25T11:25:47.065Z,9.85
2023-08-25T11:26:48.733Z,9.23
2023-08-25T11:27:53.561Z,11.00
2023-08-25T11:28:55.243Z,8.27
2023-08-25T11:30:09.453Z,8.15
2023-08-25T11:31:11.117Z,7.68
2023-08-25T11:32:13.506Z,8.52
2023-08-25T11:33:18.660Z,8.97
2023-08-25T11:34:20.326Z,10.13
2023-08-25T11:35:22.261Z,8.18
2023-08-25T11:36:27.358Z,10.90
2023-08-25T11:37:29.593Z,10.60
2023-08-25T11:38:31.459Z,9.65
2023-08-25T11:39:33.028Z,13.02
2023-08-25T11:40:39.758Z,7.90
2023-08-25T11:41:41.277Z,10.90
2023-08-25T11:42:42.856Z,9.02
2023-08-25T11:43:47.800Z,9.23
2023-08-25T11:44:49.343Z,9.60
2023-08-25T11:45:50.983Z,7.90
2023-08-25T11:46:54.495Z,9.68
2023-08-25T11:47:57.895Z,10.65
2023-08-25T11:48:59.931Z,9.75
2023-08-25T11:50:01.759Z,8.52
2023-08-25T11:51:03.381Z,11.13
2023-08-25T11:52:06.652Z,8.23
2023-08-25T11:53:08.305Z,8.50
2023-08-25T11:54:10.013Z,8.07
2023-08-25T11:55:15.186Z,9.75
2023-08-25T11:56:17.526Z,7.68
2023-08-25T11:57:19.158Z,9.52
2023-08-25T11:58:20.697Z,10.73
2023-08-25T11:59:22.465Z,8.35
2023-08-25T12:00:24.241Z,9.32
2023-08-25T12:01:33.191Z,8.00
2023-08-25T12:02:34.990Z,10.38
2023-08-25T12:03:37.408Z,8.43
2023-08-25T12:04:39.221Z,10.23
2023-08-25T12:05:40.789Z,12.60
2023-08-25T12:06:42.369Z,8.25
2023-08-25T12:07:44.044Z,8.15
2023-08-25T12:08:49.569Z,8.88
2023-08-25T12:09:58.058Z,8.55
2023-08-25T12:11:00.330Z,9.57
2023-08-25T12:12:02.534Z,8.30
2023-08-25T12:13:04.606Z,7.78
2023-08-25T12:14:06.215Z,9.43
2023-08-25T12:15:08.306Z,9.83
2023-08-25T12:16:09.833Z,9.32
2023-08-25T12:17:21.584Z,10.07
2023-08-25T12:18:23.772Z,10.60
2023-08-25T12:19:28.248Z,7.40
2023-08-25T12:20:29.806Z,8.43
2023-08-25T12:21:36.060Z,8.90
2023-08-25T12:22:49.768Z,8.90
2023-08-25T12:23:51.391Z,9.88
2023-08-25T12:24:52.942Z,7.55
2023-08-25T12:25:54.587Z,8.37
2023-08-25T12:26:56.192Z,8.85
2023-08-25T12:27:59.027Z,7.90
2023-08-25T12:29:00.848Z,9.05
2023-08-25T12:30:02.512Z,7.47
2023-08-25T12:31:04.098Z,8.88
2023-08-25T12:32:05.820Z,8.15
2023-08-25T12:33:07.644Z,7.57
2023-08-25T12:34:09.277Z,9.63
2023-08-25T12:35:10.860Z,7.75
2023-08-25T12:36:12.390Z,7.73
2023-08-25T12:37:13.940Z,10.25
2023-08-25T12:38:15.466Z,8.57
2023-08-25T12:39:17.047Z,10.25
2023-08-25T12:40:19.460Z,8.68
2023-08-25T12:41:20.974Z,9.38
2023-08-25T12:42:22.539Z,7.78
2023-08-25T12:43:24.187Z,8.25
2023-08-25T12:44:25.783Z,8.63
2023-08-25T12:45:27.389Z,9.27
2023-08-25T12:46:29.242Z,9.20
2023-08-25T12:47:30.943Z,8.13
2023-08-25T12:48:33.386Z,8.70
2023-08-25T12:49:35.250Z,9.25
2023-08-25T12:50:36.870Z,8.70
2023-08-25T12:51:39.952Z,10.05
2023-08-25T12:52:42.579Z,10.23
2023-08-25T12:53:44.464Z,6.50
2023-08-25T12:54:46.016Z,7.88
2023-08-25T12:55:47.831Z,7.57
2023-08-25T12:56:49.412Z,7.87
2023-08-25T12:57:51.347Z,7.45
2023-08-25T12:58:53.986Z,11.95
2023-08-25T12:59:55.454Z,8.38
2023-08-25T13:00:57.069Z,8.60
2023-08-25T13:01:58.849Z,7.18
2023-08-25T13:03:01.187Z,9.35
2023-08-25T13:04:03.764Z,7.75
2023-08-25T13:05:05.636Z,8.18
2023-08-25T13:06:08.284Z,8.40
2023-08-25T13:07:09.881Z,7.00
2023-08-25T13:08:11.658Z,9.55
2023-08-25T13:09:13.429Z,9.15
2023-08-25T13:10:16.221Z,8.80
2023-08-25T13:11:17.950Z,13.48
2023-08-25T13:12:20.024Z,8.52
2023-08-25T13:13:21.652Z,9.23
2023-08-25T13:14:23.441Z,8.25
2023-08-25T13:15:24.985Z,8.23
2023-08-25T13:16:26.689Z,9.43
2023-08-25T13:17:28.568Z,9.07
2023-08-25T13:18:30.149Z,8.25
2023-08-25T13:19:31.776Z,9.40
2023-08-25T13:20:33.334Z,8.23
2023-08-25T13:21:34.925Z,10.82
2023-08-25T13:22:36.467Z,8.93
2023-08-25T13:23:45.413Z,8.93
2023-08-25T13:24:55.974Z,7.78
2023-08-25T13:25:57.583Z,6.05
2023-08-25T13:26:59.295Z,7.63
2023-08-25T13:28:00.866Z,9.43
2023-08-25T13:29:03.403Z,8.50
2023-08-25T13:30:06.508Z,10.50
2023-08-25T13:31:08.051Z,7.90
2023-08-25T13:32:09.805Z,10.27
2023-08-25T13:33:12.012Z,8.07
2023-08-25T13:34:13.858Z,10.50
2023-08-25T13:35:15.486Z,8.95
2023-08-25T13:36:17.039Z,9.07